Time;durP1;ratioP1;P1;durP2;ratioP2;P2;SDS_P1;SDS_P2;PMS_P1;PMS_P2;Temp;Humidity;BMP_temperature;BMP_pressure;BME280_temperature;BME280_humidity;BME280_pressure;Samples;Min_cycle;Max_cycle;Signal;HPM_P1;HPM_P2
2022/07/19 00:00:21;;;;;;;;;;;;;;;20.30;79.83;100294.00;4991767;28;19933;-68
2022/07/19 00:02:46;;;;;;;;;;;;;;;20.23;79.77;100284.63;4991669;28;19935;-68
2022/07/19 00:05:12;;;;;;;;;;;;;;;20.19;81.09;100286.66;4991946;28;19938;-68
2022/07/19 00:07:37;;;;;;;;;;;;;;;20.18;81.97;100278.66;4991417;28;19940;-68
2022/07/19 00:10:04;;;;;;;;;;;;;;;20.09;82.67;100288.22;5008770;28;20355;-68
2022/07/19 00:12:29;;;;;;;;;;;;;;;20.07;83.55;100286.56;5011022;28;20046;-68
2022/07/19 00:14:54;;;;;;;;;;;;;;;20.03;83.35;100291.31;5008798;28;19988;-68
2022/07/19 00:17:20;;;;;;;;;;;;;;;20.02;82.90;100292.28;5010331;28;20406;-68
2022/07/19 00:19:45;;;;;;;;;;;;;;;20.06;83.32;100288.41;5008526;28;20053;-68
2022/07/19 00:22:10;;;;;;;;;;;;;;;20.08;83.10;100286.47;4992195;28;20247;-69
2022/07/19 00:24:36;;;;;;;;;;;;;;;20.12;82.80;100292.53;4990009;28;19967;-68
2022/07/19 00:27:01;;;;;;;;;;;;;;;20.14;83.20;100296.88;5003526;28;19925;-68
2022/07/19 00:29:27;;;;;;;;;;;;;;;20.16;83.00;100294.97;5006443;28;19936;-68
2022/07/19 00:31:52;;;;;;;;;;;;;;;20.15;83.32;100295.03;5010138;28;20005;-68
2022/07/19 00:34:17;;;;;;;;;;;;;;;20.07;84.54;100303.66;5011035;28;19931;-68
2022/07/19 00:36:42;;;;;;;;;;;;;;;20.05;84.89;100296.63;5012084;28;20131;-68
2022/07/19 00:39:08;;;;;;;;;;;;;;;20.04;84.70;100293.03;5014468;28;19934;-68
2022/07/19 00:41:38;;;;;;;;;;;;;;;20.02;84.94;100294.97;5014046;28;20024;-68
2022/07/19 00:44:03;;;;;;;;;;;;;;;19.90;83.81;100298.47;5013631;28;19931;-68
2022/07/19 00:46:29;;;;;;;;;;;;;;;19.80;84.72;100292.00;5013696;28;19936;-68
2022/07/19 00:48:57;;;;;;;;;;;;;;;19.77;85.03;100291.31;5013448;28;19954;-68
2022/07/19 00:51:22;;;;;;;;;;;;;;;19.67;84.79;100291.03;5013204;28;19943;-69
2022/07/19 00:53:48;;;;;;;;;;;;;;;19.53;85.61;100285.69;5012036;28;19961;-68
2022/07/19 00:56:13;;;;;;;;;;;;;;;19.44;87.01;100288.97;5013738;28;19932;-68
2022/07/19 00:58:39;;;;;;;;;;;;;;;19.39;87.20;100280.28;5013318;28;20062;-68
2022/07/19 01:01:05;;;;;;;;;;;;;;;19.37;87.39;100284.94;4996961;28;19933;-69
2022/07/19 01:03:34;;;;;;;;;;;;;;;19.37;87.33;100287.66;4994585;28;19937;-69
2022/07/19 01:05:59;;;;;;;;;;;;;;;19.35;86.88;100285.06;4994580;28;19941;-69
2022/07/19 01:08:24;;;;;;;;;;;;;;;19.34;86.87;100285.16;4994381;28;20273;-69
2022/07/19 01:10:50;;;;;;;;;;;;;;;19.34;87.31;100293.25;4994500;28;19960;-69
2022/07/19 01:13:15;;;;;;;;;;;;;;;19.32;87.73;100292.47;4994502;28;19934;-68
2022/07/19 01:15:41;;;;;;;;;;;;;;;19.32;87.92;100292.47;4994538;28;19976;-68
2022/07/19 01:18:07;;;;;;;;;;;;;;;19.19;87.61;100284.22;4976697;28;19942;-68
2022/07/19 01:20:32;;;;;;;;;;;;;;;19.11;87.39;100285.72;5007212;28;19959;-68
2022/07/19 01:22:57;;;;;;;;;;;;;;;19.05;87.35;100283.38;5013857;28;19927;-68
2022/07/19 01:25:23;;;;;;;;;;;;;;;19.01;87.13;100287.25;5013277;28;19932;-68
2022/07/19 01:27:49;;;;;;;;;;;;;;;18.96;88.03;100275.88;5007302;28;19939;-68
2022/07/19 01:30:27;;;;;;;;;;;;;;;18.90;88.29;100276.25;5012567;28;20323;-68
2022/07/19 01:32:53;;;;;;;;;;;;;;;18.88;88.59;100278.19;5012359;28;19932;-68
2022/07/19 01:35:19;;;;;;;;;;;;;;;18.89;88.90;100279.91;5012192;28;20436;-68
2022/07/19 01:37:44;;;;;;;;;;;;;;;18.94;88.81;100283.19;5012652;28;19932;-68
2022/07/19 01:40:11;;;;;;;;;;;;;;;19.03;88.47;100282.59;5011956;28;20146;-68
2022/07/19 01:42:37;;;;;;;;;;;;;;;19.03;88.04;100282.59;5011861;28;20406;-68
2022/07/19 01:45:03;;;;;;;;;;;;;;;19.01;88.47;100289.94;5013268;28;20030;-68
2022/07/19 01:47:28;;;;;;;;;;;;;;;19.00;88.72;100282.81;5013161;28;19963;-69
2022/07/19 01:49:53;;;;;;;;;;;;;;;18.95;88.84;100276.81;5012461;28;20393;-69
2022/07/19 01:52:18;;;;;;;;;;;;;;;18.95;88.80;100272.31;5013615;28;20399;-69
2022/07/19 01:54:44;;;;;;;;;;;;;;;18.94;88.97;100272.41;5013306;28;19932;-69
2022/07/19 01:57:09;;;;;;;;;;;;;;;18.89;88.64;100263.75;5013276;28;19930;-69
2022/07/19 01:59:38;;;;;;;;;;;;;;;18.87;89.75;100260.28;5012976;28;19927;-68
2022/07/19 02:02:04;;;;;;;;;;;;;;;18.90;89.79;100263.66;5013335;28;20350;-68
2022/07/19 02:04:29;;;;;;;;;;;;;;;18.86;89.99;100258.56;5013024;28;19931;-68
2022/07/19 02:06:55;;;;;;;;;;;;;;;18.83;89.56;100256.91;5013327;28;20046;-69
2022/07/19 02:09:20;;;;;;;;;;;;;;;18.79;89.39;100252.69;5012936;28;20037;-69
2022/07/19 02:11:45;;;;;;;;;;;;;;;18.76;89.29;100252.00;5011234;28;19942;-69
2022/07/19 02:14:11;;;;;;;;;;;;;;;18.71;89.13;100249.59;4993778;28;20042;-69
2022/07/19 02:16:37;;;;;;;;;;;;;;;18.68;89.32;100248.91;4996792;28;20023;-69
2022/07/19 02:19:02;;;;;;;;;;;;;;;18.64;89.39;100247.34;5012523;28;20047;-69
2022/07/19 02:21:28;;;;;;;;;;;;;;;18.57;90.09;100248.69;5002681;28;19925;-69
2022/07/19 02:23:53;;;;;;;;;;;;;;;18.52;90.20;100248.13;4993280;28;20303;-69
2022/07/19 02:26:18;;;;;;;;;;;;;;;18.48;90.20;100241.19;5001489;28;19932;-69
2022/07/19 02:28:44;;;;;;;;;;;;;;;18.43;90.85;100233.41;5012655;28;19938;-68
2022/07/19 02:31:09;;;;;;;;;;;;;;;18.40;91.76;100233.59;5012792;28;20323;-68
2022/07/19 02:33:34;;;;;;;;;;;;;;;18.35;91.86;100236.50;5008307;28;19931;-68
2022/07/19 02:35:59;;;;;;;;;;;;;;;18.34;92.17;100229.41;4992986;28;20561;-68
2022/07/19 02:38:25;;;;;;;;;;;;;;;18.34;92.16;100237.47;4992971;28;19925;-68
2022/07/19 02:40:50;;;;;;;;;;;;;;;18.32;92.49;100239.38;4993025;28;20373;-68
2022/07/19 02:43:15;;;;;;;;;;;;;;;18.26;92.11;100245.16;4993097;28;19923;-68
2022/07/19 02:45:41;;;;;;;;;;;;;;;18.23;91.87;100242.66;4991373;28;19969;-68
2022/07/19 02:48:08;;;;;;;;;;;;;;;18.20;92.03;100240.13;4991232;28;19937;-68
2022/07/19 02:50:33;;;;;;;;;;;;;;;18.18;92.09;100238.50;4993577;28;20348;-68
2022/07/19 02:52:58;;;;;;;;;;;;;;;18.16;92.09;100237.72;4991246;28;19932;-68
2022/07/19 02:55:24;;;;;;;;;;;;;;;18.14;92.51;100243.19;4993185;28;19958;-68
2022/07/19 02:57:49;;;;;;;;;;;;;;;18.10;92.33;100236.25;5011581;28;19968;-68
2022/07/19 03:00:14;;;;;;;;;;;;;;;18.04;92.71;100242.00;5009402;28;19982;-68
2022/07/19 03:02:40;;;;;;;;;;;;;;;18.02;92.75;100238.53;5010304;28;19927;-68
2022/07/19 03:05:06;;;;;;;;;;;;;;;18.00;92.90;100248.53;5010114;28;19931;-68
2022/07/19 03:07:31;;;;;;;;;;;;;;;17.92;93.34;100242.72;5010111;28;19937;-68
2022/07/19 03:09:57;;;;;;;;;;;;;;;17.95;93.37;100242.56;5010276;28;19945;-68
2022/07/19 03:12:22;;;;;;;;;;;;;;;17.94;93.47;100251.56;5010047;28;19947;-68
2022/07/19 03:14:47;;;;;;;;;;;;;;;17.98;93.49;100242.38;5011811;28;20061;-68
2022/07/19 03:17:13;;;;;;;;;;;;;;;17.97;93.68;100246.00;5011879;28;19936;-69
2022/07/19 03:19:38;;;;;;;;;;;;;;;17.91;92.85;100241.00;5011444;28;20010;-69
2022/07/19 03:22:03;;;;;;;;;;;;;;;17.78;91.90;100248.06;5011875;28;19924;-68
2022/07/19 03:24:29;;;;;;;;;;;;;;;17.74;91.70;100246.47;5011510;28;20000;-69
2022/07/19 03:26:54;;;;;;;;;;;;;;;17.68;91.71;100238.78;5004458;28;19933;-69
2022/07/19 03:29:19;;;;;;;;;;;;;;;17.68;92.38;100251.34;5011699;28;19974;-69
2022/07/19 03:31:44;;;;;;;;;;;;;;;17.65;92.63;100238.97;5011576;28;20410;-69
2022/07/19 03:34:10;;;;;;;;;;;;;;;17.64;93.07;100233.66;5011408;28;20031;-69
2022/07/19 03:36:35;;;;;;;;;;;;;;;17.57;92.42;100235.84;5011805;28;20674;-69
2022/07/19 03:39:00;;;;;;;;;;;;;;;17.53;93.12;100239.66;5011762;28;20392;-69
2022/07/19 03:41:26;;;;;;;;;;;;;;;17.51;93.46;100248.78;5011717;28;19974;-69
2022/07/19 03:43:51;;;;;;;;;;;;;;;17.54;93.46;100245.91;5011018;28;20407;-69
2022/07/19 03:46:16;;;;;;;;;;;;;;;17.55;93.18;100247.63;5011189;28;19969;-69
2022/07/19 03:48:42;;;;;;;;;;;;;;;17.53;93.90;100246.88;5011200;28;19940;-69
2022/07/19 03:51:07;;;;;;;;;;;;;;;17.53;93.47;100244.19;5011349;28;20408;-69
2022/07/19 03:53:34;;;;;;;;;;;;;;;17.51;94.06;100248.78;5011272;28;19932;-69
2022/07/19 03:55:59;;;;;;;;;;;;;;;17.50;94.27;100250.59;5009872;28;19932;-69
2022/07/19 03:58:25;;;;;;;;;;;;;;;17.51;94.21;100249.63;5010050;28;19937;-69
2022/07/19 04:00:50;;;;;;;;;;;;;;;17.47;94.43;100253.47;5009698;28;19932;-69
2022/07/19 04:03:15;;;;;;;;;;;;;;;17.47;94.55;100255.28;5009758;28;20334;-69
2022/07/19 04:05:41;;;;;;;;;;;;;;;17.51;94.53;100256.84;5007986;28;19940;-69
2022/07/19 04:08:06;;;;;;;;;;;;;;;17.51;93.90;100252.31;5001041;28;19950;-69
2022/07/19 04:10:31;;;;;;;;;;;;;;;17.56;93.62;100258.31;4990513;28;20278;-69
2022/07/19 04:12:56;;;;;;;;;;;;;;;17.61;93.79;100264.28;4992962;28;20043;-69
2022/07/19 04:15:22;;;;;;;;;;;;;;;17.65;93.04;100265.88;4994036;28;19934;-69
2022/07/19 04:17:47;;;;;;;;;;;;;;;17.68;93.21;100264.81;4993933;28;20455;-69
2022/07/19 04:20:12;;;;;;;;;;;;;;;17.74;93.29;100270.69;5004427;28;19957;-69
2022/07/19 04:22:38;;;;;;;;;;;;;;;17.82;92.67;100270.28;5013446;28;19930;-69
2022/07/19 04:25:04;;;;;;;;;;;;;;;17.86;91.65;100270.00;5013346;28;20042;-69
2022/07/19 04:27:30;;;;;;;;;;;;;;;17.94;91.31;100266.88;5002550;28;19934;-69
2022/07/19 04:29:55;;;;;;;;;;;;;;;17.98;90.51;100263.91;4995116;28;19928;-69
2022/07/19 04:32:21;;;;;;;;;;;;;;;18.00;90.07;100266.50;4995037;28;20293;-69
2022/07/19 04:34:46;;;;;;;;;;;;;;;18.04;89.76;100271.63;4994898;28;19976;-69
2022/07/19 04:37:11;;;;;;;;;;;;;;;18.09;89.77;100272.22;4993985;28;20374;-69
2022/07/19 04:39:37;;;;;;;;;;;;;;;18.12;89.57;100274.72;4996523;28;20397;-69
2022/07/19 04:42:02;;;;;;;;;;;;;;;18.15;89.38;100276.38;4993919;28;20380;-68
2022/07/19 04:44:27;;;;;;;;;;;;;;;18.20;89.02;100279.66;4994117;28;19978;-68
2022/07/19 04:46:53;;;;;;;;;;;;;;;18.22;88.70;100277.72;4993637;28;20376;-68
2022/07/19 04:49:18;;;;;;;;;;;;;;;18.27;88.94;100287.28;4993989;28;19929;-68
2022/07/19 04:51:43;;;;;;;;;;;;;;;18.36;88.88;100292.13;4994809;28;19995;-68
2022/07/19 04:54:08;;;;;;;;;;;;;;;18.45;88.18;100284.47;4996660;28;19933;-68
2022/07/19 04:56:34;;;;;;;;;;;;;;;18.56;87.80;100282.00;5003108;28;20477;-68
2022/07/19 04:58:59;;;;;;;;;;;;;;;18.72;87.37;100286.34;5012453;28;19926;-68
2022/07/19 05:01:24;;;;;;;;;;;;;;;18.87;86.59;100287.22;5012099;28;20053;-68
2022/07/19 05:03:50;;;;;;;;;;;;;;;19.08;85.21;100280.47;5012307;28;19938;-68
2022/07/19 05:06:15;;;;;;;;;;;;;;;19.23;82.23;100282.22;5008614;28;19951;-68
2022/07/19 05:08:40;;;;;;;;;;;;;;;19.40;78.52;100292.84;5002384;28;20453;-68
2022/07/19 05:11:05;;;;;;;;;;;;;;;19.59;78.25;100294.25;5003711;28;19982;-68
2022/07/19 05:13:31;;;;;;;;;;;;;;;19.77;76.33;100286.75;5003110;28;19937;-68
2022/07/19 05:15:56;;;;;;;;;;;;;;;19.90;76.41;100292.25;5003341;28;19934;-68
2022/07/19 05:18:21;;;;;;;;;;;;;;;20.06;78.19;100293.81;5002256;28;19934;-68
2022/07/19 05:20:47;;;;;;;;;;;;;;;20.17;76.91;100294.00;5003840;28;19935;-68
2022/07/19 05:23:13;;;;;;;;;;;;;;;20.38;77.43;100299.75;5003512;28;19993;-68
2022/07/19 05:25:38;;;;;;;;;;;;;;;20.58;76.16;100302.84;5002216;28;19935;-68
2022/07/19 05:28:04;;;;;;;;;;;;;;;20.71;75.41;100298.31;5013650;28;19938;-68
2022/07/19 05:30:29;;;;;;;;;;;;;;;20.77;75.25;100295.16;5013504;28;19929;-68
2022/07/19 05:32:55;;;;;;;;;;;;;;;20.83;74.63;100302.00;5000700;28;19960;-68
2022/07/19 05:35:20;;;;;;;;;;;;;;;20.93;75.28;100293.16;5001203;28;20441;-68
2022/07/19 05:37:45;;;;;;;;;;;;;;;21.05;75.07;100290.56;5004167;28;19935;-68
2022/07/19 05:40:10;;;;;;;;;;;;;;;21.16;73.54;100296.06;5003477;28;19935;-69
2022/07/19 05:42:36;;;;;;;;;;;;;;;21.31;72.62;100303.97;5013390;28;19940;-68
2022/07/19 05:45:01;;;;;;;;;;;;;;;21.39;72.31;100300.69;4992684;28;19983;-68
2022/07/19 05:47:26;;;;;;;;;;;;;;;21.52;71.66;100290.72;5011085;28;19933;-69
2022/07/19 05:49:52;;;;;;;;;;;;;;;21.67;71.65;100292.28;5010750;28;20432;-69
2022/07/19 05:52:17;;;;;;;;;;;;;;;21.80;70.98;100285.03;5008157;28;19949;-67
2022/07/19 05:54:42;;;;;;;;;;;;;;;21.93;70.22;100292.13;5011693;28;19936;-67
2022/07/19 05:57:07;;;;;;;;;;;;;;;22.07;69.55;100283.81;5011970;28;19958;-68
2022/07/19 05:59:35;;;;;;;;;;;;;;;22.27;69.54;100297.72;5002124;28;19918;-68
2022/07/19 06:02:00;;;;;;;;;;;;;;;22.43;68.52;100293.72;5007401;28;20329;-68
2022/07/19 06:04:25;;;;;;;;;;;;;;;22.63;67.79;100297.63;5001161;28;20010;-68
2022/07/19 06:06:51;;;;;;;;;;;;;;;22.74;65.77;100300.38;5011411;28;19976;-68
2022/07/19 06:09:16;;;;;;;;;;;;;;;22.95;64.88;100304.09;5006736;28;19941;-68
2022/07/19 06:11:42;;;;;;;;;;;;;;;23.05;63.49;100308.69;5011149;28;19952;-68
2022/07/19 06:14:11;;;;;;;;;;;;;;;23.25;63.65;100307.09;5006960;28;19931;-68
2022/07/19 06:16:38;;;;;;;;;;;;;;;23.44;63.29;100296.53;4991609;28;19935;-68
2022/07/19 06:19:03;;;;;;;;;;;;;;;23.59;62.83;100310.72;4994462;28;19984;-68
2022/07/19 06:21:29;;;;;;;;;;;;;;;23.67;61.83;100308.25;5011193;28;19929;-68
2022/07/19 06:23:54;;;;;;;;;;;;;;;23.82;62.23;100307.81;5010963;28;20305;-67
2022/07/19 06:26:19;;;;;;;;;;;;;;;23.97;58.59;100305.72;5003803;28;20384;-67
2022/07/19 06:28:44;;;;;;;;;;;;;;;24.11;58.91;100302.75;5010979;28;19943;-67
2022/07/19 06:31:14;;;;;;;;;;;;;;;24.25;58.91;100311.47;5009757;28;19948;-67
2022/07/19 06:33:40;;;;;;;;;;;;;;;24.44;58.15;100308.06;5007360;28;19936;-67
2022/07/19 06:36:05;;;;;;;;;;;;;;;24.59;58.41;100304.03;4991533;28;19976;-67
2022/07/19 06:38:31;;;;;;;;;;;;;;;24.70;58.20;100306.72;4991344;28;19931;-67
2022/07/19 06:40:56;;;;;;;;;;;;;;;24.84;57.68;100300.09;4990857;28;20384;-67
2022/07/19 06:43:21;;;;;;;;;;;;;;;24.94;56.61;100292.84;4993658;28;19938;-67
2022/07/19 06:45:46;;;;;;;;;;;;;;;25.20;57.20;100295.00;4990809;28;19940;-67
2022/07/19 06:48:12;;;;;;;;;;;;;;;25.37;54.93;100297.13;4991602;28;19988;-67
2022/07/19 06:50:37;;;;;;;;;;;;;;;25.59;55.98;100285.16;4990993;28;19993;-67
2022/07/19 06:53:02;;;;;;;;;;;;;;;25.71;53.78;100284.94;4991490;28;20006;-66
2022/07/19 06:55:28;;;;;;;;;;;;;;;25.71;53.20;100284.94;4992384;28;19942;-66
2022/07/19 06:57:53;;;;;;;;;;;;;;;25.83;53.72;100286.53;5010403;28;19933;-65
2022/07/19 07:00:18;;;;;;;;;;;;;;;25.95;53.81;100279.94;4990276;28;20422;-65
2022/07/19 07:02:43;;;;;;;;;;;;;;;26.10;53.45;100274.09;4992679;28;20010;-65
2022/07/19 07:05:10;;;;;;;;;;;;;;;26.38;53.75;100279.59;5007512;28;19935;-65
2022/07/19 07:07:35;;;;;;;;;;;;;;;26.51;51.75;100266.50;5009508;28;19945;-66
2022/07/19 07:10:01;;;;;;;;;;;;;;;26.79;52.73;100282.03;5009848;28;20598;-66
2022/07/19 07:12:27;;;;;;;;;;;;;;;26.82;51.60;100278.16;5008288;28;20038;-66
2022/07/19 07:14:52;;;;;;;;;;;;;;;26.94;50.91;100282.44;5006024;28;20414;-66
2022/07/19 07:17:17;;;;;;;;;;;;;;;26.99;50.07;100281.00;4990034;28;20411;-65
2022/07/19 07:19:43;;;;;;;;;;;;;;;27.09;50.09;100284.56;4997296;28;19966;-66
2022/07/19 07:22:08;;;;;;;;;;;;;;;27.29;49.98;100290.84;5010326;28;19931;-66
2022/07/19 07:24:33;;;;;;;;;;;;;;;27.47;49.05;100285.44;5010914;28;19938;-66
2022/07/19 07:26:58;;;;;;;;;;;;;;;27.58;50.81;100282.53;5004064;28;20443;-66
2022/07/19 07:29:24;;;;;;;;;;;;;;;28.00;49.80;100290.09;5011470;28;19937;-66
2022/07/19 07:31:50;;;;;;;;;;;;;;;28.15;47.19;100288.56;5011350;28;19987;-66
2022/07/19 07:34:15;;;;;;;;;;;;;;;28.36;47.58;100293.72;5011288;28;19929;-66
2022/07/19 07:36:41;;;;;;;;;;;;;;;28.74;46.52;100285.19;5011831;28;19941;-66
2022/07/19 07:39:06;;;;;;;;;;;;;;;29.16;48.58;100280.72;5010698;28;20013;-66
2022/07/19 07:41:31;;;;;;;;;;;;;;;29.72;44.65;100280.19;5010132;28;19933;-66
2022/07/19 07:43:56;;;;;;;;;;;;;;;30.16;45.98;100270.75;5010107;28;19931;-66
2022/07/19 07:46:22;;;;;;;;;;;;;;;30.34;43.50;100274.25;5010612;28;20374;-66
2022/07/19 07:48:47;;;;;;;;;;;;;;;30.72;42.17;100270.84;5011483;28;19924;-66
2022/07/19 07:51:12;;;;;;;;;;;;;;;31.13;41.99;100276.31;5011451;28;20046;-66
2022/07/19 07:53:38;;;;;;;;;;;;;;;31.26;40.44;100271.13;5010525;28;20018;-66
2022/07/19 07:56:03;;;;;;;;;;;;;;;31.54;40.94;100269.69;5010291;28;20415;-66
2022/07/19 07:58:28;;;;;;;;;;;;;;;31.84;39.44;100271.63;5010059;28;19961;-66
2022/07/19 08:00:54;;;;;;;;;;;;;;;31.91;39.48;100272.66;5009743;28;19928;-66
2022/07/19 08:03:19;;;;;;;;;;;;;;;32.07;38.90;100272.56;5010306;28;20009;-66
2022/07/19 08:05:47;;;;;;;;;;;;;;;32.26;37.69;100261.06;5010616;28;19983;-66
2022/07/19 08:08:13;;;;;;;;;;;;;;;32.58;38.81;100260.88;5011278;28;19938;-66
2022/07/19 08:10:38;;;;;;;;;;;;;;;32.91;37.31;100273.38;5009764;28;19930;-66
2022/07/19 08:13:03;;;;;;;;;;;;;;;33.25;37.65;100270.06;5009637;28;20320;-66
2022/07/19 08:15:29;;;;;;;;;;;;;;;33.56;37.10;100272.72;4994083;28;19935;-66
2022/07/19 08:17:54;;;;;;;;;;;;;;;33.53;38.17;100264.78;4989819;28;19925;-66
2022/07/19 08:20:19;;;;;;;;;;;;;;;33.74;37.25;100259.38;5001733;28;20346;-66
2022/07/19 08:22:45;;;;;;;;;;;;;;;34.07;36.82;100260.66;4993754;28;20020;-66
2022/07/19 08:25:14;;;;;;;;;;;;;;;34.29;35.37;100259.63;4990244;28;20246;-67
2022/07/19 08:27:40;;;;;;;;;;;;;;;34.36;35.42;100266.09;5009283;28;19917;-67
2022/07/19 08:30:05;;;;;;;;;;;;;;;34.35;34.77;100267.16;5010345;28;20351;-67
2022/07/19 08:32:30;;;;;;;;;;;;;;;34.55;34.18;100259.94;5009882;28;19959;-67
2022/07/19 08:34:56;;;;;;;;;;;;;;;34.69;36.38;100264.53;5009288;28;19982;-67
2022/07/19 08:37:21;;;;;;;;;;;;;;;34.89;34.75;100261.94;5009699;28;20071;-67
2022/07/19 08:39:46;;;;;;;;;;;;;;;34.93;33.97;100253.09;5009470;28;19928;-67
2022/07/19 08:42:12;;;;;;;;;;;;;;;35.09;34.70;100257.47;5010161;28;19928;-67
2022/07/19 08:44:39;;;;;;;;;;;;;;;35.22;34.95;100263.97;5009751;28;19922;-67
2022/07/19 08:47:04;;;;;;;;;;;;;;;35.31;34.35;100257.19;5009736;28;19961;-67
2022/07/19 08:49:29;;;;;;;;;;;;;;;34.98;33.62;100260.78;4980094;28;19974;-67
2022/07/19 08:51:55;;;;;;;;;;;;;;;35.30;34.58;100258.28;4991266;28;19950;-67
2022/07/19 08:54:20;;;;;;;;;;;;;;;35.54;34.15;100254.16;4991425;28;20376;-67
2022/07/19 08:59:31;;;;;;;;;;;;;;;35.83;33.54;100256.69;5001118;28;19947;-67
2022/07/19 09:01:56;;;;;;;;;;;;;;;36.15;33.18;100260.63;4993571;28;20588;-67
2022/07/19 09:04:25;;;;;;;;;;;;;;;36.29;32.38;100262.41;4992704;28;19983;-67
2022/07/19 09:06:54;;;;;;;;;;;;;;;36.53;33.59;100264.59;4993116;28;19943;-67
2022/07/19 09:09:21;;;;;;;;;;;;;;;36.52;32.25;100261.00;4992726;28;19923;-67
2022/07/19 09:11:51;;;;;;;;;;;;;;;36.75;32.93;100264.22;4994531;28;19951;-67
2022/07/19 09:14:18;;;;;;;;;;;;;;;36.72;33.11;100259.09;4994568;28;20413;-67
2022/07/19 09:16:49;;;;;;;;;;;;;;;36.70;32.46;100260.38;4993219;28;19929;-67
2022/07/19 09:19:15;;;;;;;;;;;;;;;36.69;32.56;100253.97;4995838;28;19963;-67
2022/07/19 09:21:55;;;;;;;;;;;;;;;36.98;32.33;100249.97;5012734;28;20467;-67
2022/07/19 09:24:21;;;;;;;;;;;;;;;37.15;31.74;100256.78;5012648;28;19931;-67
2022/07/19 09:26:54;;;;;;;;;;;;;;;37.22;31.15;100249.28;5005125;28;20022;-67
2022/07/19 09:29:20;;;;;;;;;;;;;;;37.40;31.39;100248.66;5011129;28;19926;-67
2022/07/19 09:32:01;;;;;;;;;;;;;;;37.77;31.01;100248.78;5013167;28;19950;-68
2022/07/19 09:34:27;;;;;;;;;;;;;;;37.98;29.93;100244.84;5012469;28;20288;-67
2022/07/19 09:37:09;;;;;;;;;;;;;;;38.03;29.69;100248.66;5012288;28;20303;-67
2022/07/19 09:39:34;;;;;;;;;;;;;;;37.80;31.24;100245.56;5012484;28;19935;-67
2022/07/19 09:42:02;;;;;;;;;;;;;;;37.73;30.11;100230.84;5012146;28;20436;-67
2022/07/19 09:44:28;;;;;;;;;;;;;;;37.71;30.04;100238.53;5012471;28;19934;-67
2022/07/19 09:46:53;;;;;;;;;;;;;;;37.60;29.89;100235.56;5011407;28;19918;-67
2022/07/19 09:49:19;;;;;;;;;;;;;;;37.72;30.89;100234.69;5011618;28;19939;-67
2022/07/19 09:51:46;;;;;;;;;;;;;;;38.04;29.36;100238.41;5011617;28;19943;-67
2022/07/19 09:54:13;;;;;;;;;;;;;;;38.09;31.09;100225.53;5011913;28;19929;-67
2022/07/19 09:56:39;;;;;;;;;;;;;;;38.34;30.85;100216.47;5011253;28;19930;-67
2022/07/19 09:59:05;;;;;;;;;;;;;;;38.56;30.88;100226.13;5011965;28;19929;-66
2022/07/19 10:01:31;;;;;;;;;;;;;;;38.56;31.02;100215.00;5013426;28;19938;-66
2022/07/19 10:04:00;;;;;;;;;;;;;;;38.66;29.23;100212.59;5013285;28;19984;-66
2022/07/19 10:06:26;;;;;;;;;;;;;;;38.78;29.31;100208.00;5013170;28;19980;-66
2022/07/19 10:08:52;;;;;;;;;;;;;;;38.96;29.28;100205.28;5013085;28;19982;-66
2022/07/19 10:11:18;;;;;;;;;;;;;;;39.13;30.30;100211.97;5012403;28;19999;-66
2022/07/19 10:13:43;;;;;;;;;;;;;;;39.27;29.81;100208.00;5004541;28;19957;-66
2022/07/19 10:16:13;;;;;;;;;;;;;;;39.11;28.26;100197.47;4993317;28;19930;-66
2022/07/19 10:18:44;;;;;;;;;;;;;;;39.30;28.49;100201.94;4993525;28;20486;-66
2022/07/19 10:21:09;;;;;;;;;;;;;;;39.38;29.43;100190.50;5010138;28;20378;-66
2022/07/19 10:23:35;;;;;;;;;;;;;;;39.15;29.91;100187.56;5011083;28;19938;-67
2022/07/19 10:26:00;;;;;;;;;;;;;;;39.24;29.63;100180.63;5005112;28;20303;-66
2022/07/19 10:28:27;;;;;;;;;;;;;;;39.26;29.83;100178.47;5009550;28;19932;-66
2022/07/19 10:30:52;;;;;;;;;;;;;;;39.65;29.00;100172.44;4999354;28;19940;-66
2022/07/19 10:33:29;;;;;;;;;;;;;;;40.00;28.01;100170.69;4993006;28;19983;-66
2022/07/19 10:35:54;;;;;;;;;;;;;;;40.43;29.33;100160.19;4993106;28;19936;-66
2022/07/19 10:38:19;;;;;;;;;;;;;;;40.57;27.71;100167.25;4992983;28;19931;-66
2022/07/19 10:40:56;;;;;;;;;;;;;;;40.61;27.55;100154.50;5007457;28;19985;-66
2022/07/19 10:43:21;;;;;;;;;;;;;;;40.61;27.17;100150.88;5012657;28;20428;-66
2022/07/19 10:45:56;;;;;;;;;;;;;;;40.58;27.44;100149.41;5012582;28;19926;-65
2022/07/19 10:48:34;;;;;;;;;;;;;;;40.63;27.23;100143.97;5012514;28;20437;-65
2022/07/19 10:51:00;;;;;;;;;;;;;;;40.63;26.63;100139.47;4995335;28;19928;-66
2022/07/19 10:53:40;;;;;;;;;;;;;;;40.88;26.55;100134.53;4994522;28;19929;-66
2022/07/19 10:56:15;;;;;;;;;;;;;;;41.12;25.36;100133.44;4997789;28;19938;-66
2022/07/19 10:58:50;;;;;;;;;;;;;;;41.20;25.92;100127.50;5011543;28;19997;-66
2022/07/19 11:01:20;;;;;;;;;;;;;;;41.06;24.97;100126.00;5010765;28;19934;-66
2022/07/19 11:03:46;;;;;;;;;;;;;;;41.34;25.56;100117.75;5010792;28;20341;-66
2022/07/19 11:06:18;;;;;;;;;;;;;;;41.47;25.13;100109.06;5010550;28;19945;-66
2022/07/19 11:08:43;;;;;;;;;;;;;;;41.78;24.86;100103.88;5011055;28;19939;-66
2022/07/19 11:11:14;;;;;;;;;;;;;;;42.02;24.27;100104.66;5012139;28;19935;-66
2022/07/19 11:13:42;;;;;;;;;;;;;;;42.08;23.34;100114.81;5011831;28;19946;-66
2022/07/19 11:16:07;;;;;;;;;;;;;;;42.26;24.59;100111.78;5012114;28;20026;-66
2022/07/19 11:18:33;;;;;;;;;;;;;;;41.97;23.27;100098.13;5011932;28;20017;-66
2022/07/19 11:20:59;;;;;;;;;;;;;;;42.12;24.51;100099.25;5011369;28;20311;-66
2022/07/19 11:23:34;;;;;;;;;;;;;;;42.27;23.37;100093.06;5011834;28;19940;-66
2022/07/19 11:26:05;;;;;;;;;;;;;;;42.30;23.70;100085.03;5006016;28;19930;-66
2022/07/19 11:28:31;;;;;;;;;;;;;;;42.51;22.74;100075.91;5010973;28;19947;-66
2022/07/19 11:30:56;;;;;;;;;;;;;;;42.56;23.28;100069.53;5011673;28;19929;-66
2022/07/19 11:33:21;;;;;;;;;;;;;;;42.43;24.06;100067.94;5011939;28;19934;-66
2022/07/19 11:35:54;;;;;;;;;;;;;;;42.70;23.01;100068.94;5011887;28;19979;-66
2022/07/19 11:38:19;;;;;;;;;;;;;;;42.68;23.09;100071.13;5011820;28;19958;-66
2022/07/19 11:40:44;;;;;;;;;;;;;;;42.93;22.83;100065.09;5011401;28;19936;-66
2022/07/19 11:43:10;;;;;;;;;;;;;;;42.96;23.15;100054.22;5011411;28;20362;-65
2022/07/19 11:45:46;;;;;;;;;;;;;;;43.14;23.15;100046.63;5011464;28;19930;-65
2022/07/19 11:48:11;;;;;;;;;;;;;;;43.58;22.31;100051.13;5011791;28;19997;-65
2022/07/19 11:50:40;;;;;;;;;;;;;;;43.96;23.01;100045.38;5011556;28;19926;-65
2022/07/19 11:53:06;;;;;;;;;;;;;;;43.90;20.92;100046.41;5011469;28;19959;-65
2022/07/19 11:55:39;;;;;;;;;;;;;;;43.66;20.94;100042.25;5011425;28;19965;-65
2022/07/19 11:58:09;;;;;;;;;;;;;;;43.69;20.84;100039.75;5011274;28;19936;-65
2022/07/19 12:00:34;;;;;;;;;;;;;;;44.08;20.73;100048.84;5011402;28;20308;-65
2022/07/19 12:03:03;;;;;;;;;;;;;;;44.16;21.25;100039.94;5011557;28;20031;-65
2022/07/19 12:05:29;;;;;;;;;;;;;;;44.29;19.83;100042.28;5009215;28;19925;-65
2022/07/19 12:07:57;;;;;;;;;;;;;;;44.55;19.16;100034.94;4992097;28;19940;-65
2022/07/19 12:10:39;;;;;;;;;;;;;;;44.70;20.33;100030.28;4991737;28;20042;-65
2022/07/19 12:13:05;;;;;;;;;;;;;;;44.89;19.14;100025.06;4991633;28;19952;-65
2022/07/19 12:15:46;;;;;;;;;;;;;;;44.87;20.78;100019.72;4994064;28;20033;-66
2022/07/19 12:18:12;;;;;;;;;;;;;;;45.09;19.65;100022.41;5011143;28;19946;-66
2022/07/19 12:20:38;;;;;;;;;;;;;;;45.28;20.85;100021.63;5010936;28;19958;-65
2022/07/19 12:23:14;;;;;;;;;;;;;;;45.35;19.23;100016.59;5011532;28;19978;-65
2022/07/19 12:25:39;;;;;;;;;;;;;;;45.29;21.21;100012.06;5008220;28;19964;-66
2022/07/19 12:28:05;;;;;;;;;;;;;;;44.99;19.71;100006.31;5006450;28;19951;-66
2022/07/19 12:30:30;;;;;;;;;;;;;;;44.87;19.91;100005.69;5009091;28;19938;-66
2022/07/19 12:33:06;;;;;;;;;;;;;;;44.44;20.43;99997.53;5010399;28;19979;-66